sensor_id;sensor_type;location;lat;lon;timestamp;pressure;altitude;pressure_sealevel;temperature;humidity
15260;BME280;34462;51.368;12.364;2023-03-13T00:02:02;19021.31;;;-141.84;85.15
15260;BME280;34462;51.368;12.364;2023-03-13T00:04:31;18996.91;;;-141.84;84.97
15260;BME280;34462;51.368;12.364;2023-03-13T00:06:59;18980.66;;;-141.84;85.00
15260;BME280;34462;51.368;12.364;2023-03-13T00:09:27;19000.97;;;-141.84;84.78
15260;BME280;34462;51.368;12.364;2023-03-13T00:11:55;18988.78;;;-141.84;85.00
15260;BME280;34462;51.368;12.364;2023-03-13T00:14:24;19017.25;;;-141.84;84.74
15260;BME280;34462;51.368;12.364;2023-03-13T00:16:53;19049.75;;;-141.84;82.90
15260;BME280;34462;51.368;12.364;2023-03-13T00:19:21;19039.59;;;-141.84;83.40
15260;BME280;34462;51.368;12.364;2023-03-13T00:21:49;19013.16;;;-141.84;84.05
15260;BME280;34462;51.368;12.364;2023-03-13T00:24:17;19021.31;;;-141.84;84.40
15260;BME280;34462;51.368;12.364;2023-03-13T00:26:46;19015.19;;;-141.84;84.03
15260;BME280;34462;51.368;12.364;2023-03-13T00:29:14;19011.13;;;-141.84;83.31
15260;BME280;34462;51.368;12.364;2023-03-13T00:31:42;19033.50;;;-141.84;82.68
15260;BME280;34462;51.368;12.364;2023-03-13T00:34:12;19037.56;;;-141.84;82.72
15260;BME280;34462;51.368;12.364;2023-03-13T00:36:40;19013.16;;;-141.84;83.36
15260;BME280;34462;51.368;12.364;2023-03-13T00:39:08;19025.38;;;-141.84;83.13
15260;BME280;34462;51.368;12.364;2023-03-13T00:41:37;19029.44;;;-141.84;83.60
15260;BME280;34462;51.368;12.364;2023-03-13T00:44:05;19015.19;;;-141.84;83.31
15260;BME280;34462;51.368;12.364;2023-03-13T00:46:34;19033.50;;;-141.84;83.81
15260;BME280;34462;51.368;12.364;2023-03-13T00:49:03;18988.78;;;-141.84;83.59
15260;BME280;34462;51.368;12.364;2023-03-13T00:51:34;19045.69;;;-141.84;83.23
15260;BME280;34462;51.368;12.364;2023-03-13T00:54:03;19017.25;;;-141.84;83.12
15260;BME280;34462;51.368;12.364;2023-03-13T00:56:31;19017.25;;;-141.84;83.36
15260;BME280;34462;51.368;12.364;2023-03-13T00:58:59;19009.09;;;-141.84;83.45
15260;BME280;34462;51.368;12.364;2023-03-13T01:01:31;19029.44;;;-141.84;83.22
15260;BME280;34462;51.368;12.364;2023-03-13T01:04:01;19019.28;;;-141.84;83.05
15260;BME280;34462;51.368;12.364;2023-03-13T01:06:34;19110.72;;;-141.84;81.27
15260;BME280;34462;51.368;12.364;2023-03-13T01:09:05;19059.91;;;-141.84;81.27
15260;BME280;34462;51.368;12.364;2023-03-13T01:11:37;19066.00;;;-141.84;80.93
15260;BME280;34462;51.368;12.364;2023-03-13T01:14:08;19070.06;;;-141.84;81.04
15260;BME280;34462;51.368;12.364;2023-03-13T01:16:38;19084.28;;;-141.84;81.25
15260;BME280;34462;51.368;12.364;2023-03-13T01:19:09;19092.41;;;-141.84;80.68
15260;BME280;34462;51.368;12.364;2023-03-13T01:21:42;19084.28;;;-141.84;79.44
15260;BME280;34462;51.368;12.364;2023-03-13T01:24:11;19068.03;;;-141.84;79.29
15260;BME280;34462;51.368;12.364;2023-03-13T01:26:40;19096.47;;;-141.84;78.06
15260;BME280;34462;51.368;12.364;2023-03-13T01:29:08;19108.69;;;-141.84;78.18
15260;BME280;34462;51.368;12.364;2023-03-13T01:31:36;19122.91;;;-141.84;78.75
15260;BME280;34462;51.368;12.364;2023-03-13T01:34:05;19126.97;;;-141.84;77.73
15260;BME280;34462;51.368;12.364;2023-03-13T01:36:36;19090.38;;;-141.84;78.50
15260;BME280;34462;51.368;12.364;2023-03-13T01:39:06;19086.31;;;-141.84;79.17
15260;BME280;34462;51.368;12.364;2023-03-13T01:41:36;19118.84;;;-141.84;78.45
15260;BME280;34462;51.368;12.364;2023-03-13T01:44:04;19096.47;;;-141.84;78.73
15260;BME280;34462;51.368;12.364;2023-03-13T01:46:32;19080.22;;;-141.84;79.08
15260;BME280;34462;51.368;12.364;2023-03-13T01:49:04;19074.13;;;-141.84;79.15
15260;BME280;34462;51.368;12.364;2023-03-13T01:51:39;19106.66;;;-141.84;78.36
15260;BME280;34462;51.368;12.364;2023-03-13T01:54:14;19118.84;;;-141.84;78.41
15260;BME280;34462;51.368;12.364;2023-03-13T01:56:47;19135.09;;;-141.84;78.12
15260;BME280;34462;51.368;12.364;2023-03-13T01:59:22;19104.59;;;-141.84;78.32
15260;BME280;34462;51.368;12.364;2023-03-13T02:01:57;19096.47;;;-141.84;77.71
15260;BME280;34462;51.368;12.364;2023-03-13T02:04:33;19118.84;;;-141.84;77.75
15260;BME280;34462;51.368;12.364;2023-03-13T02:07:09;19124.94;;;-141.84;76.46
15260;BME280;34462;51.368;12.364;2023-03-13T02:09:45;19151.34;;;-141.84;76.21
15260;BME280;34462;51.368;12.364;2023-03-13T02:12:25;19124.94;;;-141.84;76.83
15260;BME280;34462;51.368;12.364;2023-03-13T02:15:01;19108.69;;;-141.84;77.10
15260;BME280;34462;51.368;12.364;2023-03-13T02:17:31;19181.81;;;-141.84;75.64
15260;BME280;34462;51.368;12.364;2023-03-13T02:20:00;19157.44;;;-141.84;75.10
15260;BME280;34462;51.368;12.364;2023-03-13T02:22:38;19129.00;;;-141.84;74.92
15260;BME280;34462;51.368;12.364;2023-03-13T02:25:29;19163.53;;;-141.84;75.84
15260;BME280;34462;51.368;12.364;2023-03-13T02:28:03;19183.84;;;-141.84;75.47
15260;BME280;34462;51.368;12.364;2023-03-13T02:30:34;19106.66;;;-141.84;74.97
15260;BME280;34462;51.368;12.364;2023-03-13T02:33:03;19171.66;;;-141.84;75.49
15260;BME280;34462;51.368;12.364;2023-03-13T02:35:33;19167.59;;;-141.84;75.17
15260;BME280;34462;51.368;12.364;2023-03-13T02:38:07;19163.53;;;-141.84;74.66
15260;BME280;34462;51.368;12.364;2023-03-13T02:40:43;19165.56;;;-141.84;74.96
15260;BME280;34462;51.368;12.364;2023-03-13T02:43:17;19175.72;;;-141.84;74.85
15260;BME280;34462;51.368;12.364;2023-03-13T02:46:04;19194.03;;;-141.84;74.74
15260;BME280;34462;51.368;12.364;2023-03-13T02:48:36;19185.88;;;-141.84;74.98
15260;BME280;34462;51.368;12.364;2023-03-13T02:51:13;19185.88;;;-141.84;74.62
15260;BME280;34462;51.368;12.364;2023-03-13T02:53:45;19189.97;;;-141.84;75.14
15260;BME280;34462;51.368;12.364;2023-03-13T02:56:19;19159.47;;;-141.84;75.05
15260;BME280;34462;51.368;12.364;2023-03-13T02:58:48;19194.03;;;-141.84;75.52
15260;BME280;34462;51.368;12.364;2023-03-13T03:01:17;19145.25;;;-141.84;75.31
15260;BME280;34462;51.368;12.364;2023-03-13T03:03:45;19151.34;;;-141.84;75.03
15260;BME280;34462;51.368;12.364;2023-03-13T03:06:14;19167.59;;;-141.84;75.34
15260;BME280;34462;51.368;12.364;2023-03-13T03:08:42;19204.19;;;-141.84;75.19
15260;BME280;34462;51.368;12.364;2023-03-13T03:11:11;19161.50;;;-141.84;75.34
15260;BME280;34462;51.368;12.364;2023-03-13T03:13:40;19181.81;;;-141.84;75.16
15260;BME280;34462;51.368;12.364;2023-03-13T03:16:12;19163.53;;;-141.84;75.42
15260;BME280;34462;51.368;12.364;2023-03-13T03:18:44;19216.38;;;-141.84;74.69
15260;BME280;34462;51.368;12.364;2023-03-13T03:21:13;19185.88;;;-141.84;74.09
15260;BME280;34462;51.368;12.364;2023-03-13T03:23:41;19189.97;;;-141.84;73.80
15260;BME280;34462;51.368;12.364;2023-03-13T03:26:09;19220.44;;;-141.84;74.81
15260;BME280;34462;51.368;12.364;2023-03-13T03:28:37;19206.22;;;-141.84;74.52
15260;BME280;34462;51.368;12.364;2023-03-13T03:31:08;19200.13;;;-141.84;74.28
15260;BME280;34462;51.368;12.364;2023-03-13T03:33:38;19196.06;;;-141.84;73.47
15260;BME280;34462;51.368;12.364;2023-03-13T03:36:09;19210.28;;;-141.84;73.24
15260;BME280;34462;51.368;12.364;2023-03-13T03:38:40;19218.41;;;-141.84;73.17
15260;BME280;34462;51.368;12.364;2023-03-13T03:41:11;19200.13;;;-141.84;73.32
15260;BME280;34462;51.368;12.364;2023-03-13T03:43:40;19198.09;;;-141.84;73.82
15260;BME280;34462;51.368;12.364;2023-03-13T03:46:10;19202.16;;;-141.84;73.94
15260;BME280;34462;51.368;12.364;2023-03-13T03:48:39;19204.19;;;-141.84;74.10
15260;BME280;34462;51.368;12.364;2023-03-13T03:51:07;19200.13;;;-141.84;73.94
15260;BME280;34462;51.368;12.364;2023-03-13T03:53:35;19169.63;;;-141.84;73.73
15260;BME280;34462;51.368;12.364;2023-03-13T03:56:04;19222.47;;;-141.84;73.23
15260;BME280;34462;51.368;12.364;2023-03-13T03:58:32;19244.81;;;-141.84;73.18
15260;BME280;34462;51.368;12.364;2023-03-13T04:01:01;19250.91;;;-141.84;73.33
15260;BME280;34462;51.368;12.364;2023-03-13T04:03:30;19271.25;;;-141.84;73.17
15260;BME280;34462;51.368;12.364;2023-03-13T04:05:59;19269.22;;;-141.84;73.19
15260;BME280;34462;51.368;12.364;2023-03-13T04:08:27;19238.72;;;-141.84;72.78
15260;BME280;34462;51.368;12.364;2023-03-13T04:10:55;19236.69;;;-141.84;73.17
15260;BME280;34462;51.368;12.364;2023-03-13T04:13:24;19242.78;;;-141.84;73.41
15260;BME280;34462;51.368;12.364;2023-03-13T04:15:52;19228.56;;;-141.84;72.84
15260;BME280;34462;51.368;12.364;2023-03-13T04:18:20;19212.31;;;-141.84;73.41
15260;BME280;34462;51.368;12.364;2023-03-13T04:20:50;19248.88;;;-141.84;73.83
15260;BME280;34462;51.368;12.364;2023-03-13T04:23:26;19236.69;;;-141.84;74.19
15260;BME280;34462;51.368;12.364;2023-03-13T04:25:54;19216.38;;;-141.84;73.99
15260;BME280;34462;51.368;12.364;2023-03-13T04:28:23;19187.91;;;-141.84;74.02
15260;BME280;34462;51.368;12.364;2023-03-13T04:30:51;19222.47;;;-141.84;73.64
15260;BME280;34462;51.368;12.364;2023-03-13T04:33:23;19216.38;;;-141.84;73.26
15260;BME280;34462;51.368;12.364;2023-03-13T04:35:53;19244.81;;;-141.84;73.53
15260;BME280;34462;51.368;12.364;2023-03-13T04:38:21;19257.00;;;-141.84;73.33
15260;BME280;34462;51.368;12.364;2023-03-13T04:40:49;19208.25;;;-141.84;74.36
15260;BME280;34462;51.368;12.364;2023-03-13T04:43:17;19192.00;;;-141.84;75.03
15260;BME280;34462;51.368;12.364;2023-03-13T04:45:45;19171.66;;;-141.84;75.59
15260;BME280;34462;51.368;12.364;2023-03-13T04:48:13;19161.50;;;-141.84;76.00
15260;BME280;34462;51.368;12.364;2023-03-13T04:50:42;19196.06;;;-141.84;76.06
15260;BME280;34462;51.368;12.364;2023-03-13T04:53:11;19200.13;;;-141.84;76.18
15260;BME280;34462;51.368;12.364;2023-03-13T04:55:40;19185.88;;;-141.84;76.19
15260;BME280;34462;51.368;12.364;2023-03-13T04:58:08;19212.31;;;-141.84;75.34
15260;BME280;34462;51.368;12.364;2023-03-13T05:00:39;19202.16;;;-141.84;76.05
15260;BME280;34462;51.368;12.364;2023-03-13T05:03:07;19210.28;;;-141.84;76.36
15260;BME280;34462;51.368;12.364;2023-03-13T05:05:35;19204.19;;;-141.84;76.00
15260;BME280;34462;51.368;12.364;2023-03-13T05:08:04;19151.34;;;-141.84;76.17
15260;BME280;34462;51.368;12.364;2023-03-13T05:10:33;19187.91;;;-141.84;76.42
15260;BME280;34462;51.368;12.364;2023-03-13T05:13:02;19187.91;;;-141.84;76.66
15260;BME280;34462;51.368;12.364;2023-03-13T05:15:30;19189.97;;;-141.84;76.72
15260;BME280;34462;51.368;12.364;2023-03-13T05:17:58;19206.22;;;-141.84;76.84
15260;BME280;34462;51.368;12.364;2023-03-13T05:20:26;19187.91;;;-141.84;76.95
15260;BME280;34462;51.368;12.364;2023-03-13T05:22:54;19218.41;;;-141.84;76.58
15260;BME280;34462;51.368;12.364;2023-03-13T05:25:22;19194.03;;;-141.84;76.55
15260;BME280;34462;51.368;12.364;2023-03-13T05:27:52;19173.69;;;-141.84;77.05
15260;BME280;34462;51.368;12.364;2023-03-13T05:30:20;19250.91;;;-141.84;75.79
15260;BME280;34462;51.368;12.364;2023-03-13T05:32:49;19222.47;;;-141.84;75.40
15260;BME280;34462;51.368;12.364;2023-03-13T05:35:17;19214.34;;;-141.84;75.24
15260;BME280;34462;51.368;12.364;2023-03-13T05:37:45;19238.72;;;-141.84;75.16
15260;BME280;34462;51.368;12.364;2023-03-13T05:40:14;19187.91;;;-141.84;75.87
15260;BME280;34462;51.368;12.364;2023-03-13T05:42:43;19206.22;;;-141.84;75.58
15260;BME280;34462;51.368;12.364;2023-03-13T05:45:13;19236.69;;;-141.84;74.82
15260;BME280;34462;51.368;12.364;2023-03-13T05:47:41;19196.06;;;-141.84;75.06
15260;BME280;34462;51.368;12.364;2023-03-13T05:50:10;19226.53;;;-141.84;75.76
15260;BME280;34462;51.368;12.364;2023-03-13T05:52:38;19214.34;;;-141.84;75.45
15260;BME280;34462;51.368;12.364;2023-03-13T05:55:07;19220.44;;;-141.84;75.11
15260;BME280;34462;51.368;12.364;2023-03-13T05:57:35;19214.34;;;-141.84;75.58
15260;BME280;34462;51.368;12.364;2023-03-13T06:00:06;19242.78;;;-141.84;75.20
15260;BME280;34462;51.368;12.364;2023-03-13T06:02:36;19228.56;;;-141.84;75.56
15260;BME280;34462;51.368;12.364;2023-03-13T06:05:05;19244.81;;;-141.84;76.12
15260;BME280;34462;51.368;12.364;2023-03-13T06:07:34;19214.34;;;-141.84;75.81
15260;BME280;34462;51.368;12.364;2023-03-13T06:10:02;19218.41;;;-141.84;75.79
15260;BME280;34462;51.368;12.364;2023-03-13T06:12:31;19232.63;;;-141.84;76.87
15260;BME280;34462;51.368;12.364;2023-03-13T06:14:59;19222.47;;;-141.84;77.00
15260;BME280;34462;51.368;12.364;2023-03-13T06:17:27;19198.09;;;-141.84;77.49
15260;BME280;34462;51.368;12.364;2023-03-13T06:19:57;19212.31;;;-141.84;77.11
15260;BME280;34462;51.368;12.364;2023-03-13T06:22:25;19206.22;;;-141.84;77.77
15260;BME280;34462;51.368;12.364;2023-03-13T06:24:53;19181.81;;;-141.84;78.23
15260;BME280;34462;51.368;12.364;2023-03-13T06:27:22;19181.81;;;-141.84;78.97
15260;BME280;34462;51.368;12.364;2023-03-13T06:29:50;19177.75;;;-141.84;79.36
15260;BME280;34462;51.368;12.364;2023-03-13T06:32:19;19155.41;;;-141.84;80.53
15260;BME280;34462;51.368;12.364;2023-03-13T06:34:47;19183.84;;;-141.84;80.14
15260;BME280;34462;51.368;12.364;2023-03-13T06:37:17;19183.84;;;-141.84;80.32
15260;BME280;34462;51.368;12.364;2023-03-13T06:39:45;19175.72;;;-141.84;81.24
15260;BME280;34462;51.368;12.364;2023-03-13T06:42:13;19204.19;;;-141.84;80.51
15260;BME280;34462;51.368;12.364;2023-03-13T06:44:41;19175.72;;;-141.84;79.95
15260;BME280;34462;51.368;12.364;2023-03-13T06:47:10;19181.81;;;-141.84;80.92
15260;BME280;34462;51.368;12.364;2023-03-13T06:49:41;19198.09;;;-141.84;81.43
15260;BME280;34462;51.368;12.364;2023-03-13T06:52:09;19210.28;;;-141.84;79.71
15260;BME280;34462;51.368;12.364;2023-03-13T06:54:39;19192.00;;;-141.84;80.44
15260;BME280;34462;51.368;12.364;2023-03-13T06:57:07;19189.97;;;-141.84;80.70
15260;BME280;34462;51.368;12.364;2023-03-13T06:59:35;19192.00;;;-141.84;79.59
15260;BME280;34462;51.368;12.364;2023-03-13T07:02:03;19167.59;;;-141.84;79.46
15260;BME280;34462;51.368;12.364;2023-03-13T07:04:32;19204.19;;;-141.84;79.14
15260;BME280;34462;51.368;12.364;2023-03-13T07:07:00;19226.53;;;-141.84;79.07
15260;BME280;34462;51.368;12.364;2023-03-13T07:09:28;19220.44;;;-141.84;78.54
15260;BME280;34462;51.368;12.364;2023-03-13T07:11:58;19196.06;;;-141.84;78.25
15260;BME280;34462;51.368;12.364;2023-03-13T07:14:26;19216.38;;;-141.84;78.23
15260;BME280;34462;51.368;12.364;2023-03-13T07:16:54;19250.91;;;-141.84;76.87
15260;BME280;34462;51.368;12.364;2023-03-13T07:19:24;19250.91;;;-141.84;76.81
15260;BME280;34462;51.368;12.364;2023-03-13T07:21:53;19305.78;;;-141.84;75.95
15260;BME280;34462;51.368;12.364;2023-03-13T07:24:23;19287.50;;;-141.84;75.75
15260;BME280;34462;51.368;12.364;2023-03-13T07:26:52;19317.97;;;-141.84;75.46
15260;BME280;34462;51.368;12.364;2023-03-13T07:29:34;19301.72;;;-141.84;75.19
15260;BME280;34462;51.368;12.364;2023-03-13T07:32:03;19281.41;;;-141.84;75.06
15260;BME280;34462;51.368;12.364;2023-03-13T07:34:31;19336.25;;;-141.84;74.64
15260;BME280;34462;51.368;12.364;2023-03-13T07:36:59;19372.84;;;-141.84;74.12
15260;BME280;34462;51.368;12.364;2023-03-13T07:39:27;19354.56;;;-141.84;73.70
15260;BME280;34462;51.368;12.364;2023-03-13T07:41:56;19356.59;;;-141.84;73.79
15260;BME280;34462;51.368;12.364;2023-03-13T07:44:24;19338.28;;;-141.84;74.57
15260;BME280;34462;51.368;12.364;2023-03-13T07:46:53;19346.44;;;-141.84;74.29
15260;BME280;34462;51.368;12.364;2023-03-13T07:49:21;19326.09;;;-141.84;74.41
15260;BME280;34462;51.368;12.364;2023-03-13T07:51:50;19356.59;;;-141.84;74.03
15260;BME280;34462;51.368;12.364;2023-03-13T07:54:18;19364.72;;;-141.84;73.54
15260;BME280;34462;51.368;12.364;2023-03-13T07:56:46;19387.06;;;-141.84;73.33
15260;BME280;34462;51.368;12.364;2023-03-13T07:59:14;19395.19;;;-141.84;73.09
15260;BME280;34462;51.368;12.364;2023-03-13T08:01:43;19374.88;;;-141.84;73.27
15260;BME280;34462;51.368;12.364;2023-03-13T08:04:13;19366.75;;;-141.84;72.59
15260;BME280;34462;51.368;12.364;2023-03-13T08:06:41;19389.09;;;-141.84;72.40
15260;BME280;34462;51.368;12.364;2023-03-13T08:09:09;19419.59;;;-141.84;72.55
15260;BME280;34462;51.368;12.364;2023-03-13T08:11:38;19395.19;;;-141.84;72.73
15260;BME280;34462;51.368;12.364;2023-03-13T08:14:07;19452.09;;;-141.84;72.50
15260;BME280;34462;51.368;12.364;2023-03-13T08:16:35;19395.19;;;-141.84;73.65
15260;BME280;34462;51.368;12.364;2023-03-13T08:19:04;19399.25;;;-141.84;73.96
15260;BME280;34462;51.368;12.364;2023-03-13T08:21:36;19397.22;;;-141.84;73.46
15260;BME280;34462;51.368;12.364;2023-03-13T08:24:07;19364.72;;;-141.84;73.97
15260;BME280;34462;51.368;12.364;2023-03-13T08:26:38;19399.25;;;-141.84;73.69
15260;BME280;34462;51.368;12.364;2023-03-13T08:29:10;19376.91;;;-141.84;74.21
15260;BME280;34462;51.368;12.364;2023-03-13T08:31:43;19383.00;;;-141.84;74.15
15260;BME280;34462;51.368;12.364;2023-03-13T08:34:15;19401.28;;;-141.84;74.37
15260;BME280;34462;51.368;12.364;2023-03-13T08:36:45;19364.72;;;-141.84;75.63
15260;BME280;34462;51.368;12.364;2023-03-13T08:39:16;19362.69;;;-141.84;75.93
15260;BME280;34462;51.368;12.364;2023-03-13T08:41:45;19370.81;;;-141.84;76.77
15260;BME280;34462;51.368;12.364;2023-03-13T08:44:18;19326.09;;;-141.84;76.65
15260;BME280;34462;51.368;12.364;2023-03-13T08:46:47;19389.09;;;-141.84;75.92
15260;BME280;34462;51.368;12.364;2023-03-13T08:49:16;19362.69;;;-141.84;75.91
15260;BME280;34462;51.368;12.364;2023-03-13T08:51:45;19352.53;;;-141.84;75.93
15260;BME280;34462;51.368;12.364;2023-03-13T08:54:13;19344.41;;;-141.84;76.20
15260;BME280;34462;51.368;12.364;2023-03-13T08:56:42;19326.09;;;-141.84;76.36
15260;BME280;34462;51.368;12.364;2023-03-13T08:59:10;19352.53;;;-141.84;76.37
15260;BME280;34462;51.368;12.364;2023-03-13T09:01:38;19350.50;;;-141.84;75.84
15260;BME280;34462;51.368;12.364;2023-03-13T09:04:07;19376.91;;;-141.84;75.16
15260;BME280;34462;51.368;12.364;2023-03-13T09:06:37;19374.88;;;-141.84;75.45
15260;BME280;34462;51.368;12.364;2023-03-13T09:09:08;19326.09;;;-141.84;76.36
15260;BME280;34462;51.368;12.364;2023-03-13T09:11:37;19393.16;;;-141.84;76.11
15260;BME280;34462;51.368;12.364;2023-03-13T09:14:07;19403.31;;;-141.84;76.21
15260;BME280;34462;51.368;12.364;2023-03-13T09:16:37;19336.25;;;-141.84;75.62
15260;BME280;34462;51.368;12.364;2023-03-13T09:19:05;19393.16;;;-141.84;75.48
15260;BME280;34462;51.368;12.364;2023-03-13T09:21:34;19407.38;;;-141.84;74.97
15260;BME280;34462;51.368;12.364;2023-03-13T09:24:03;19413.47;;;-141.84;75.16
15260;BME280;34462;51.368;12.364;2023-03-13T09:26:33;19391.13;;;-141.84;75.66
15260;BME280;34462;51.368;12.364;2023-03-13T09:29:01;19415.50;;;-141.84;75.33
15260;BME280;34462;51.368;12.364;2023-03-13T09:31:31;19395.19;;;-141.84;75.61
15260;BME280;34462;51.368;12.364;2023-03-13T09:34:00;19421.63;;;-141.84;74.55
15260;BME280;34462;51.368;12.364;2023-03-13T09:36:29;19466.31;;;-141.84;73.64
15260;BME280;34462;51.368;12.364;2023-03-13T09:38:58;19450.06;;;-141.84;73.73
15260;BME280;34462;51.368;12.364;2023-03-13T09:41:35;19460.22;;;-141.84;73.41
15260;BME280;34462;51.368;12.364;2023-03-13T09:44:10;19496.81;;;-141.84;72.48
15260;BME280;34462;51.368;12.364;2023-03-13T09:46:48;19529.31;;;-141.84;71.98
15260;BME280;34462;51.368;12.364;2023-03-13T09:49:31;19500.88;;;-141.84;71.51
15260;BME280;34462;51.368;12.364;2023-03-13T09:52:14;19511.03;;;-141.84;71.86
15260;BME280;34462;51.368;12.364;2023-03-13T09:54:49;19519.16;;;-141.84;71.94
15260;BME280;34462;51.368;12.364;2023-03-13T09:57:27;19559.81;;;-141.84;71.52
15260;BME280;34462;51.368;12.364;2023-03-13T10:00:04;19529.31;;;-141.84;71.88
15260;BME280;34462;51.368;12.364;2023-03-13T10:02:37;19525.25;;;-141.84;72.46
15260;BME280;34462;51.368;12.364;2023-03-13T10:05:14;19545.56;;;-141.84;72.76
15260;BME280;34462;51.368;12.364;2023-03-13T10:07:43;19529.31;;;-141.84;72.30
15260;BME280;34462;51.368;12.364;2023-03-13T10:10:18;19574.03;;;-141.84;71.81
15260;BME280;34462;51.368;12.364;2023-03-13T10:12:56;19515.09;;;-141.84;72.75
15260;BME280;34462;51.368;12.364;2023-03-13T10:15:38;19557.78;;;-141.84;72.55
15260;BME280;34462;51.368;12.364;2023-03-13T10:18:16;19557.78;;;-141.84;72.24
15260;BME280;34462;51.368;12.364;2023-03-13T10:20:48;19543.53;;;-141.84;72.32
15260;BME280;34462;51.368;12.364;2023-03-13T10:23:26;19533.38;;;-141.84;73.20
15260;BME280;34462;51.368;12.364;2023-03-13T10:25:59;19527.28;;;-141.84;73.08
15260;BME280;34462;51.368;12.364;2023-03-13T10:28:28;19529.31;;;-141.84;73.19
15260;BME280;34462;51.368;12.364;2023-03-13T10:31:05;19543.53;;;-141.84;73.64
15260;BME280;34462;51.368;12.364;2023-03-13T10:33:37;19504.94;;;-141.84;73.13
15260;BME280;34462;51.368;12.364;2023-03-13T10:36:09;19569.97;;;-141.84;73.15
15260;BME280;34462;51.368;12.364;2023-03-13T10:38:50;19517.13;;;-141.84;73.19
15260;BME280;34462;51.368;12.364;2023-03-13T10:41:25;19549.63;;;-141.84;72.89
15260;BME280;34462;51.368;12.364;2023-03-13T10:44:00;19563.88;;;-141.84;73.09
15260;BME280;34462;51.368;12.364;2023-03-13T10:46:32;19553.72;;;-141.84;72.74
15260;BME280;34462;51.368;12.364;2023-03-13T10:49:03;19594.34;;;-141.84;72.52
15260;BME280;34462;51.368;12.364;2023-03-13T10:51:37;19572.00;;;-141.84;72.65
15260;BME280;34462;51.368;12.364;2023-03-13T10:54:15;19590.28;;;-141.84;72.07
15260;BME280;34462;51.368;12.364;2023-03-13T10:56:48;19612.63;;;-141.84;71.24
15260;BME280;34462;51.368;12.364;2023-03-13T10:59:23;19618.75;;;-141.84;71.21
15260;BME280;34462;51.368;12.364;2023-03-13T11:01:53;19632.97;;;-141.84;70.83
15260;BME280;34462;51.368;12.364;2023-03-13T11:04:31;19665.47;;;-141.84;70.51
15260;BME280;34462;51.368;12.364;2023-03-13T11:07:05;19679.72;;;-141.84;69.80
15260;BME280;34462;51.368;12.364;2023-03-13T11:09:33;19683.78;;;-141.84;68.99
15260;BME280;34462;51.368;12.364;2023-03-13T11:12:06;19726.44;;;-141.84;68.33
15260;BME280;34462;51.368;12.364;2023-03-13T11:14:37;19746.78;;;-141.84;68.08
15260;BME280;34462;51.368;12.364;2023-03-13T11:17:24;19813.84;;;-141.84;66.82
15260;BME280;34462;51.368;12.364;2023-03-13T11:20:10;19781.31;;;-141.84;67.08
15260;BME280;34462;51.368;12.364;2023-03-13T11:22:51;19815.88;;;-141.84;66.95
15260;BME280;34462;51.368;12.364;2023-03-13T11:25:29;19793.50;;;-141.84;66.91
15260;BME280;34462;51.368;12.364;2023-03-13T11:28:19;19821.97;;;-141.84;66.63
15260;BME280;34462;51.368;12.364;2023-03-13T11:31:10;19811.81;;;-141.84;66.72
15260;BME280;34462;51.368;12.364;2023-03-13T11:33:48;19824.00;;;-141.84;66.83
15260;BME280;34462;51.368;12.364;2023-03-13T11:36:32;19826.03;;;-141.84;66.80
15260;BME280;34462;51.368;12.364;2023-03-13T11:39:31;19824.00;;;-141.84;66.63
15260;BME280;34462;51.368;12.364;2023-03-13T11:42:12;19874.81;;;-141.84;66.05
15260;BME280;34462;51.368;12.364;2023-03-13T11:44:58;19880.91;;;-141.84;65.65
15260;BME280;34462;51.368;12.364;2023-03-13T11:47:48;19866.69;;;-141.84;66.56
15260;BME280;34462;51.368;12.364;2023-03-13T11:50:32;19870.75;;;-141.84;65.58
15260;BME280;34462;51.368;12.364;2023-03-13T11:53:23;19895.13;;;-141.84;65.24
15260;BME280;34462;51.368;12.364;2023-03-13T11:56:09;20029.28;;;-141.84;63.92
15260;BME280;34462;51.368;12.364;2023-03-13T11:59:07;20063.81;;;-141.84;61.96
15260;BME280;34462;51.368;12.364;2023-03-13T12:01:50;20061.78;;;-141.84;61.68
15260;BME280;34462;51.368;12.364;2023-03-13T12:04:27;20116.66;;;-141.84;61.23
15260;BME280;34462;51.368;12.364;2023-03-13T12:07:03;20126.84;;;-141.84;60.80
15260;BME280;34462;51.368;12.364;2023-03-13T12:09:41;20151.22;;;-141.84;60.82
15260;BME280;34462;51.368;12.364;2023-03-13T12:12:20;20141.06;;;-141.84;60.49
15260;BME280;34462;51.368;12.364;2023-03-13T12:14:56;20159.34;;;-141.84;60.54
15260;BME280;34462;51.368;12.364;2023-03-13T12:17:33;20110.56;;;-141.84;61.02
15260;BME280;34462;51.368;12.364;2023-03-13T12:20:11;20102.44;;;-141.84;61.35
15260;BME280;34462;51.368;12.364;2023-03-13T12:22:53;20122.78;;;-141.84;60.79
15260;BME280;34462;51.368;12.364;2023-03-13T12:25:26;20169.53;;;-141.84;59.71
15260;BME280;34462;51.368;12.364;2023-03-13T12:28:05;20250.81;;;-141.84;58.94
15260;BME280;34462;51.368;12.364;2023-03-13T12:30:42;20250.81;;;-141.84;58.95
15260;BME280;34462;51.368;12.364;2023-03-13T12:33:18;20189.84;;;-141.84;60.15
15260;BME280;34462;51.368;12.364;2023-03-13T12:36:00;20210.16;;;-141.84;60.03
15260;BME280;34462;51.368;12.364;2023-03-13T12:38:36;20181.72;;;-141.84;60.43
15260;BME280;34462;51.368;12.364;2023-03-13T12:41:23;20197.97;;;-141.84;60.18
15260;BME280;34462;51.368;12.364;2023-03-13T12:43:54;20153.25;;;-141.84;60.54
15260;BME280;34462;51.368;12.364;2023-03-13T12:46:43;20130.91;;;-141.84;60.92
15260;BME280;34462;51.368;12.364;2023-03-13T12:49:54;20130.91;;;-141.84;60.88
15260;BME280;34462;51.368;12.364;2023-03-13T12:53:07;20155.28;;;-141.84;61.03
15260;BME280;34462;51.368;12.364;2023-03-13T12:56:06;20171.56;;;-141.84;61.93